createdAt,value
2024-05-09T00:00:06.435Z,101709.03
2024-05-09T00:05:14.026Z,101705.91
2024-05-09T00:10:25.520Z,101716.94
2024-05-09T00:15:37.972Z,101728.16
2024-05-09T00:20:44.983Z,101729.84
2024-05-09T00:25:49.335Z,101728.22
2024-05-09T00:30:53.750Z,101724.44
2024-05-09T00:36:00.704Z,101714.88
2024-05-09T00:41:05.066Z,101714.25
2024-05-09T00:46:11.124Z,101713.63
2024-05-09T00:51:18.409Z,101713.59
2024-05-09T00:56:24.618Z,101717.34
2024-05-09T01:01:29.410Z,101707.34
2024-05-09T01:06:36.464Z,101706.06
2024-05-09T01:11:42.822Z,101708.16
2024-05-09T01:16:47.500Z,101708.56
2024-05-09T01:21:54.695Z,101697.72
2024-05-09T01:27:01.862Z,101700.44
2024-05-09T01:32:06.675Z,101693.13
2024-05-09T01:37:11.262Z,101683.13
2024-05-09T01:42:18.614Z,101703.31
2024-05-09T01:47:23.183Z,101703.06
2024-05-09T01:52:27.735Z,101696.25
2024-05-09T01:57:34.891Z,101695.44
2024-05-09T02:02:39.849Z,101707.31
2024-05-09T02:07:44.306Z,101695.84
2024-05-09T02:12:51.402Z,101711.63
2024-05-09T02:17:56.101Z,101706.41
2024-05-09T02:23:01.590Z,101707.38
2024-05-09T02:28:08.786Z,101715.94
2024-05-09T02:33:14.464Z,101706.34
2024-05-09T02:38:19.318Z,101709.69
2024-05-09T02:43:26.427Z,101703.03
2024-05-09T02:48:31.027Z,101718.78
2024-05-09T02:53:35.670Z,101705.63
2024-05-09T02:58:43.041Z,101688.72
2024-05-09T03:03:50.420Z,101699.34
2024-05-09T03:08:54.928Z,101703.31
2024-05-09T03:14:02.056Z,101709.56
2024-05-09T03:19:06.715Z,101694.56
2024-05-09T03:24:11.251Z,101713.06
2024-05-09T03:29:20.109Z,101708.97
2024-05-09T03:34:24.475Z,101721.03
2024-05-09T03:39:28.878Z,101716.66
2024-05-09T03:44:35.851Z,101710.56
2024-05-09T03:49:40.762Z,101716.22
2024-05-09T03:54:48.318Z,101715.63
2024-05-09T03:59:55.259Z,101719.56
2024-05-09T04:04:59.623Z,101717.41
2024-05-09T04:10:05.298Z,101714.38
2024-05-09T04:15:13.690Z,101723.94
2024-05-09T04:20:28.774Z,101721.91
2024-05-09T04:25:40.972Z,101722.56
2024-05-09T04:30:47.968Z,101730.13
2024-05-09T04:35:52.371Z,101728.47
2024-05-09T04:40:56.767Z,101730.16
2024-05-09T04:46:03.800Z,101743.75
2024-05-09T04:51:09.833Z,101738.97
2024-05-09T04:56:14.345Z,101744.81
2024-05-09T05:01:21.484Z,101738.78
2024-05-09T05:06:25.820Z,101742.13
2024-05-09T05:11:30.307Z,101734.44
2024-05-09T05:16:37.324Z,101748.63
2024-05-09T05:21:41.656Z,101743.00
2024-05-09T05:26:46.145Z,101742.16
2024-05-09T05:31:53.331Z,101755.88
2024-05-09T05:36:57.815Z,101753.38
2024-05-09T05:42:02.164Z,101757.53
2024-05-09T05:47:09.280Z,101758.53
2024-05-09T05:52:13.741Z,101765.19
2024-05-09T05:57:18.132Z,101766.78
2024-05-09T06:02:25.176Z,101770.91
2024-05-09T06:07:29.619Z,101776.47
2024-05-09T06:12:33.917Z,101762.63
2024-05-09T06:17:40.961Z,101769.03
2024-05-09T06:22:45.405Z,101761.38
2024-05-09T06:27:49.725Z,101770.22
2024-05-09T06:32:56.799Z,101777.44
2024-05-09T06:38:01.751Z,101786.47
2024-05-09T06:43:06.540Z,101778.06
2024-05-09T06:48:14.088Z,101780.41
2024-05-09T06:53:19.611Z,101771.44
2024-05-09T06:58:23.984Z,101777.00
2024-05-09T07:03:31.740Z,101781.97
2024-05-09T07:08:36.291Z,101782.81
2024-05-09T07:13:40.714Z,101783.41
2024-05-09T07:18:49.818Z,101782.63
2024-05-09T07:23:54.451Z,101775.94
2024-05-09T07:28:58.912Z,101771.59
2024-05-09T07:34:06.110Z,101767.41
2024-05-09T07:39:10.519Z,101767.88
2024-05-09T07:44:14.914Z,101764.09
2024-05-09T07:54:29.354Z,101757.75
2024-05-09T07:59:37.631Z,101760.22
2024-05-09T08:04:44.908Z,101747.22
2024-05-09T08:09:49.474Z,101752.63
2024-05-09T08:14:55.336Z,101748.03
2024-05-09T08:20:04.385Z,101745.97
2024-05-09T08:25:11.897Z,101751.97
2024-05-09T08:30:24.764Z,101755.88
2024-05-09T08:35:36.826Z,101740.31
2024-05-09T08:40:41.420Z,101740.72
2024-05-09T08:45:46.980Z,101736.72
2024-05-09T08:50:59.157Z,101723.75
2024-05-09T08:56:04.731Z,101727.81
2024-05-09T09:01:10.247Z,101712.53
2024-05-09T09:06:20.525Z,101721.06
2024-05-09T09:11:24.868Z,101709.50
2024-05-09T09:16:36.415Z,101707.38
2024-05-09T09:21:43.482Z,101711.19
2024-05-09T09:26:47.957Z,101706.78
2024-05-09T09:32:00.636Z,101718.56
2024-05-09T09:37:10.183Z,101702.94
2024-05-09T09:42:19.127Z,101706.19
2024-05-09T09:47:24.404Z,101688.75
2024-05-09T09:52:31.669Z,101701.59
2024-05-09T09:57:38.097Z,101695.09
2024-05-09T10:02:42.812Z,101678.31
2024-05-09T10:07:50.270Z,101685.00
2024-05-09T10:12:59.684Z,101682.78
2024-05-09T10:18:08.337Z,101674.41
2024-05-09T10:23:29.187Z,101675.56
2024-05-09T10:28:34.987Z,101674.53
2024-05-09T10:33:41.664Z,101667.22
2024-05-09T10:38:48.877Z,101664.31
2024-05-09T10:43:53.921Z,101665.75
2024-05-09T10:49:04.196Z,101657.66
2024-05-09T10:54:13.494Z,101659.63
2024-05-09T10:59:17.840Z,101651.94
2024-05-09T11:04:22.502Z,101641.50
2024-05-09T11:09:29.841Z,101632.47
2024-05-09T11:14:34.355Z,101632.00
2024-05-09T11:19:41.545Z,101638.63
2024-05-09T11:24:48.650Z,101626.78
2024-05-09T11:29:53.115Z,101622.94
2024-05-09T11:34:57.426Z,101617.69
2024-05-09T11:40:07.100Z,101607.00
2024-05-09T11:45:15.923Z,101595.97
2024-05-09T11:50:27.150Z,101602.00
2024-05-09T11:55:39.414Z,101591.50
2024-05-09T12:00:43.936Z,101590.94
2024-05-09T12:05:48.687Z,101594.06
2024-05-09T12:10:56.236Z,101581.66
2024-05-09T12:16:01.266Z,101571.47
2024-05-09T12:21:05.824Z,101566.53
2024-05-09T12:26:14.011Z,101556.88
2024-05-09T12:31:18.366Z,101555.44
2024-05-09T12:36:22.779Z,101547.75
2024-05-09T12:41:29.829Z,101553.44
2024-05-09T12:46:34.535Z,101552.66
2024-05-09T12:51:39.093Z,101542.72
2024-05-09T12:56:46.146Z,101525.03
2024-05-09T13:01:51.054Z,101524.81
2024-05-09T13:06:55.535Z,101517.66
2024-05-09T13:12:03.008Z,101504.09
2024-05-09T13:17:07.837Z,101510.19
2024-05-09T13:22:12.342Z,101498.59
2024-05-09T13:27:19.412Z,101491.75
2024-05-09T13:32:23.910Z,101490.66
2024-05-09T13:37:28.612Z,101479.09
2024-05-09T13:42:35.621Z,101473.94
2024-05-09T13:47:40.276Z,101468.16
2024-05-09T13:52:44.696Z,101466.22
2024-05-09T13:57:52.095Z,101464.72
2024-05-09T14:02:56.718Z,101465.41
2024-05-09T14:08:01.245Z,101458.28
2024-05-09T14:13:08.316Z,101440.56
2024-05-09T14:18:14.178Z,101444.16
2024-05-09T14:23:20.520Z,101434.16
2024-05-09T14:28:27.992Z,101417.41
2024-05-09T14:33:32.629Z,101413.75
2024-05-09T14:38:37.087Z,101415.91
2024-05-09T14:43:44.015Z,101398.66
2024-05-09T14:48:48.728Z,101405.63
2024-05-09T14:53:53.218Z,101402.09
2024-05-09T14:59:01.183Z,101396.69
2024-05-09T15:04:05.709Z,101395.09
2024-05-09T15:09:10.222Z,101384.06
2024-05-09T15:14:17.179Z,101383.94
2024-05-09T15:19:21.910Z,101384.97
2024-05-09T15:24:26.364Z,101373.03
2024-05-09T15:29:33.373Z,101363.84
2024-05-09T15:34:37.797Z,101363.47
2024-05-09T15:39:42.777Z,101359.75
2024-05-09T15:44:52.956Z,101335.06
2024-05-09T15:49:57.499Z,101350.72
2024-05-09T15:55:01.953Z,101336.28
2024-05-09T16:00:21.443Z,101334.38
2024-05-09T16:05:29.689Z,101325.25
2024-05-09T16:10:35.138Z,101335.44
2024-05-09T16:15:42.717Z,101328.72
2024-05-09T16:20:49.500Z,101327.41
2024-05-09T16:25:54.757Z,101328.41
2024-05-09T16:31:02.534Z,101321.84
2024-05-09T16:36:07.598Z,101323.25
2024-05-09T16:41:13.306Z,101320.50
2024-05-09T16:46:22.330Z,101320.84
2024-05-09T16:51:26.717Z,101312.41
2024-05-09T16:56:31.092Z,101312.41
2024-05-09T17:01:38.086Z,101310.84
2024-05-09T17:06:42.603Z,101313.22
2024-05-09T17:11:47.074Z,101311.50
2024-05-09T17:16:54.290Z,101299.63
2024-05-09T17:21:58.789Z,101303.97
2024-05-09T17:27:03.443Z,101290.25
2024-05-09T17:32:10.715Z,101301.78
2024-05-09T17:37:15.145Z,101301.06
2024-05-09T17:42:19.561Z,101309.66
2024-05-09T17:47:26.655Z,101296.53
2024-05-09T17:52:31.203Z,101310.53
2024-05-09T17:57:35.979Z,101307.38
2024-05-09T18:02:43.008Z,101302.69
2024-05-09T18:07:47.467Z,101302.22
2024-05-09T18:12:51.835Z,101299.00
2024-05-09T18:17:59.393Z,101300.88
2024-05-09T18:23:03.865Z,101301.78
2024-05-09T18:28:09.475Z,101310.63
2024-05-09T18:33:17.061Z,101314.50
2024-05-09T18:44:44.139Z,101305.59
2024-05-09T18:49:51.452Z,101304.34
2024-05-09T18:54:55.865Z,101306.97
2024-05-09T19:00:00.441Z,101326.59
2024-05-09T19:05:07.955Z,101321.25
2024-05-09T19:10:22.213Z,101316.13
2024-05-09T19:15:30.231Z,101325.56
2024-05-09T19:20:38.064Z,101325.56
2024-05-09T19:25:43.325Z,101335.44
2024-05-09T19:30:48.220Z,101337.72
2024-05-09T19:35:55.504Z,101349.75
2024-05-09T19:41:00.369Z,101333.81
2024-05-09T19:46:05.475Z,101337.34
2024-05-09T19:51:13.023Z,101336.09
2024-05-09T19:56:18.024Z,101342.94
2024-05-09T20:01:22.957Z,101351.13
2024-05-09T20:06:30.702Z,101354.50
2024-05-09T20:11:41.741Z,101348.16
2024-05-09T20:16:47.106Z,101359.13
2024-05-09T20:21:54.703Z,101358.91
2024-05-09T20:26:59.125Z,101344.25
2024-05-09T20:32:04.548Z,101355.78
2024-05-09T20:37:12.286Z,101355.63
2024-05-09T20:42:17.290Z,101349.44
2024-05-09T20:47:22.296Z,101355.84
2024-05-09T20:52:32.243Z,101360.06
2024-05-09T20:57:37.093Z,101365.56
2024-05-09T21:02:43.696Z,101367.22
2024-05-09T21:07:51.319Z,101364.06
2024-05-09T21:12:56.526Z,101358.28
2024-05-09T21:18:02.184Z,101344.00
2024-05-09T21:23:11.083Z,101351.25
2024-05-09T21:28:15.574Z,101364.56
2024-05-09T21:33:22.581Z,101358.31
2024-05-09T21:38:29.617Z,101365.63
2024-05-09T21:43:34.618Z,101355.22
2024-05-09T21:48:39.559Z,101367.91
2024-05-09T21:53:47.153Z,101364.59
2024-05-09T21:58:51.617Z,101362.00
2024-05-09T22:03:56.510Z,101366.72
2024-05-09T22:09:05.751Z,101366.16
2024-05-09T22:14:10.302Z,101367.63
2024-05-09T22:19:15.119Z,101367.88
2024-05-09T22:24:22.484Z,101368.78
2024-05-09T22:29:26.849Z,101364.69
2024-05-09T22:34:32.729Z,101388.47
2024-05-09T22:39:39.988Z,101371.06
2024-05-09T22:44:45.035Z,101372.50
2024-05-09T22:49:49.740Z,101362.59
2024-05-09T22:54:57.841Z,101364.25
2024-05-09T23:00:02.575Z,101362.72
2024-05-09T23:05:08.726Z,101359.69
2024-05-09T23:10:21.467Z,101348.13
2024-05-09T23:15:32.630Z,101354.75
2024-05-09T23:20:39.465Z,101340.81
2024-05-09T23:25:47.439Z,101357.38
2024-05-09T23:30:52.500Z,101355.81
2024-05-09T23:35:56.875Z,101350.03
2024-05-09T23:41:03.961Z,101350.28
2024-05-09T23:46:08.945Z,101352.53
2024-05-09T23:51:13.378Z,101345.78
2024-05-09T23:56:24.448Z,101339.03
